Terminal Aerodrome Forecast
Issued by NWS

Home | Current Version | Previous Version | Text Only | Print | Product List | Glossary On
Versions: 1 2 3 4 5 6 7 8 9 10 11 12 13
000
FTUS46 KSEW 230500
TAFOLM
TAF
KOLM 230520Z 2306/2406 20006KT P6SM -SHRA SCT022 OVC035
      TEMPO 2306/2310 4SM -RA BR OVC022
     FM231200 20008KT P6SM VCSH BKN025 OVC050
     FM231900 19008KT P6SM VCSH SCT035 OVC050
     FM232300 18009KT P6SM -RA SCT025 OVC050
     FM240100 18010KT 4SM -RA BR OVC012=

USA.gov is the U.S. government's official web portal to all federal, state and local government web resources and services.